createdAt,value
2019-06-08T00:01:43.543Z,100908.73
2019-06-08T00:04:14.391Z,100901.70
2019-06-08T00:06:43.709Z,100894.69
2019-06-08T00:09:13.080Z,100893.85
2019-06-08T00:11:42.372Z,100902.31
2019-06-08T00:14:13.025Z,100900.12
2019-06-08T00:16:42.581Z,100905.83
2019-06-08T00:19:13.181Z,100905.03
2019-06-08T00:21:42.523Z,100908.50
2019-06-08T00:24:13.608Z,100920.44
2019-06-08T00:26:44.382Z,100914.20
2019-06-08T00:29:14.176Z,100926.59
2019-06-08T00:31:43.771Z,100915.64
2019-06-08T00:34:14.448Z,100919.19
2019-06-08T00:36:43.790Z,100925.76
2019-06-08T00:39:14.623Z,100918.73
2019-06-08T00:41:43.976Z,100916.09
2019-06-08T00:44:13.588Z,100936.36
2019-06-08T00:46:43.194Z,100918.28
2019-06-08T00:49:12.524Z,100934.14
2019-06-08T00:51:41.863Z,100920.89
2019-06-08T00:54:11.190Z,100934.14
2019-06-08T00:56:41.498Z,100933.65
2019-06-08T00:59:10.829Z,100944.30
2019-06-08T01:01:40.407Z,100939.88
2019-06-08T01:04:09.745Z,100946.48
2019-06-08T01:06:39.078Z,100941.61
2019-06-08T01:09:08.467Z,100941.16
2019-06-08T01:11:37.828Z,100938.10
2019-06-08T01:14:07.395Z,100943.88
2019-06-08T01:16:36.755Z,100949.61
2019-06-08T01:19:06.083Z,100946.97
2019-06-08T01:21:35.448Z,100956.19
2019-06-08T01:24:04.865Z,100950.94
2019-06-08T01:26:34.434Z,100957.54
2019-06-08T01:29:03.935Z,100939.91
2019-06-08T01:31:33.404Z,100953.58
2019-06-08T01:34:02.760Z,100961.92
2019-06-08T01:36:32.088Z,100966.34
2019-06-08T01:39:01.413Z,100990.61
2019-06-08T01:41:32.362Z,100961.99
2019-06-08T01:44:01.747Z,100965.53
2019-06-08T01:46:32.431Z,100965.53
2019-06-08T01:49:01.933Z,100981.45
2019-06-08T01:51:31.258Z,100993.83
2019-06-08T01:54:01.802Z,100988.16
2019-06-08T01:56:31.264Z,100986.41
2019-06-08T01:59:01.513Z,100979.36
2019-06-08T02:01:31.970Z,100990.38
2019-06-08T02:04:01.254Z,100984.22
2019-06-08T02:06:30.584Z,100986.83
2019-06-08T02:08:59.914Z,100990.38
2019-06-08T02:11:30.826Z,100992.59
2019-06-08T02:14:00.225Z,100992.20
2019-06-08T02:16:29.739Z,100993.53
2019-06-08T02:18:59.094Z,100997.01
2019-06-08T02:21:28.914Z,100997.06
2019-06-08T02:23:59.187Z,100994.45
2019-06-08T02:26:29.293Z,101003.77
2019-06-08T02:28:59.995Z,100987.91
2019-06-08T02:31:30.687Z,101000.72
2019-06-08T02:34:00.371Z,101002.92
2019-06-08T02:36:31.590Z,101004.69
2019-06-08T02:39:01.224Z,101014.80
2019-06-08T02:41:33.097Z,101013.56
2019-06-08T02:44:02.658Z,101021.45
2019-06-08T02:46:33.324Z,101020.14
2019-06-08T02:49:04.695Z,101041.79
2019-06-08T02:51:36.441Z,101031.67
2019-06-08T02:54:06.708Z,101036.48
2019-06-08T02:56:39.340Z,101029.06
2019-06-08T02:59:08.099Z,101027.77
2019-06-08T03:01:38.897Z,101038.33
2019-06-08T03:04:08.458Z,101035.73
2019-06-08T03:06:41.486Z,101035.77
2019-06-08T03:09:10.791Z,101047.22
2019-06-08T03:11:41.859Z,101044.58
2019-06-08T03:14:11.208Z,101040.19
2019-06-08T03:16:41.603Z,101035.81
2019-06-08T03:19:21.462Z,101045.07
2019-06-08T03:21:42.600Z,101049.05
2019-06-08T03:24:11.899Z,101064.89
2019-06-08T03:26:43.890Z,101066.20
2019-06-08T03:29:12.552Z,101078.97
2019-06-08T03:31:51.070Z,101058.73
2019-06-08T03:34:13.234Z,101079.85
2019-06-08T03:36:53.708Z,101068.45
2019-06-08T03:39:13.992Z,101069.77
2019-06-08T03:41:45.177Z,101087.81
2019-06-08T03:44:14.356Z,101081.67
2019-06-08T03:46:45.758Z,101088.26
2019-06-08T03:49:14.738Z,101090.05
2019-06-08T03:51:48.190Z,101086.11
2019-06-08T03:54:15.115Z,101104.58
2019-06-08T03:56:46.135Z,101095.80
2019-06-08T03:59:15.557Z,101088.30
2019-06-08T04:01:46.187Z,101087.45
2019-06-08T04:04:15.661Z,101090.55
2019-06-08T04:06:45.702Z,101099.78
2019-06-08T04:09:15.482Z,101093.63
2019-06-08T04:11:46.581Z,101087.94
2019-06-08T04:14:15.878Z,101099.84
2019-06-08T04:16:46.773Z,101098.52
2019-06-08T04:19:16.318Z,101094.13
2019-06-08T04:21:46.263Z,101103.37
2019-06-08T04:24:15.738Z,101106.89
2019-06-08T04:26:46.981Z,101100.73
2019-06-08T04:29:16.453Z,101113.08
2019-06-08T04:31:46.085Z,101118.35
2019-06-08T04:34:15.420Z,101099.88
2019-06-08T04:36:46.324Z,101103.83
2019-06-08T04:39:15.833Z,101102.98
2019-06-08T04:41:46.931Z,101102.53
2019-06-08T04:44:16.221Z,101133.31
2019-06-08T04:46:47.725Z,101122.78
2019-06-08T04:49:16.997Z,101135.52
2019-06-08T04:51:47.624Z,101132.86
2019-06-08T04:54:17.405Z,101138.17
2019-06-08T04:56:47.077Z,101127.63
2019-06-08T04:59:16.709Z,101151.37
2019-06-08T05:01:47.106Z,101156.20
2019-06-08T05:04:16.541Z,101146.09
2019-06-08T05:06:47.196Z,101149.19
2019-06-08T05:09:17.559Z,101147.88
2019-06-08T05:11:47.478Z,101157.09
2019-06-08T05:14:17.102Z,101168.97
2019-06-08T05:16:47.450Z,101160.16
2019-06-08T05:19:16.792Z,101175.09
2019-06-08T05:21:47.424Z,101178.19
2019-06-08T05:24:16.799Z,101177.79
2019-06-08T05:26:47.314Z,101175.98
2019-06-08T05:29:16.638Z,101187.85
2019-06-08T05:31:47.565Z,101179.05
2019-06-08T05:34:17.210Z,101172.47
2019-06-08T05:36:47.565Z,101184.78
2019-06-08T05:39:16.897Z,101186.13
2019-06-08T05:41:46.251Z,101180.89
2019-06-08T05:44:15.579Z,101184.85
2019-06-08T05:46:45.759Z,101179.59
2019-06-08T05:49:15.415Z,101200.23
2019-06-08T05:51:45.823Z,101191.91
2019-06-08T05:54:15.178Z,101197.17
2019-06-08T05:56:45.921Z,101187.94
2019-06-08T05:59:15.254Z,101182.66
2019-06-08T06:01:44.657Z,101189.23
2019-06-08T06:04:14.269Z,101187.48
2019-06-08T06:06:44.569Z,101209.02
2019-06-08T06:09:13.907Z,101207.70
2019-06-08T06:11:43.250Z,101249.03
2019-06-08T06:14:12.580Z,101234.95
2019-06-08T06:16:43.102Z,101224.41
2019-06-08T06:19:12.563Z,101249.48
2019-06-08T06:21:43.019Z,101234.95
2019-06-08T06:24:12.604Z,101264.02
2019-06-08T06:26:43.169Z,101233.23
2019-06-08T06:29:12.631Z,101246.87
2019-06-08T06:31:41.971Z,101234.09
2019-06-08T06:34:11.343Z,101247.72
2019-06-08T06:36:41.710Z,101248.62
2019-06-08T06:39:11.076Z,101264.42
2019-06-08T06:41:41.759Z,101267.49
2019-06-08T06:44:11.166Z,101286.40
2019-06-08T06:46:41.812Z,101279.80
2019-06-08T06:49:11.202Z,101283.77
2019-06-08T06:51:40.530Z,101280.25
2019-06-08T06:54:09.893Z,101295.65
2019-06-08T06:56:39.221Z,101303.55
2019-06-08T06:59:08.547Z,101306.20
2019-06-08T07:01:37.992Z,101310.58
2019-06-08T07:04:07.393Z,101312.34
2019-06-08T07:06:36.765Z,101344.86
2019-06-08T07:09:06.966Z,101326.41
2019-06-08T07:11:36.543Z,101342.69
2019-06-08T07:14:06.232Z,101340.92
2019-06-08T07:16:35.795Z,101350.59
2019-06-08T07:19:05.137Z,101356.30
2019-06-08T07:21:41.659Z,101344.00
2019-06-08T07:24:05.692Z,101353.69
2019-06-08T07:26:35.364Z,101359.37
2019-06-08T07:29:04.782Z,101358.92
2019-06-08T07:31:34.096Z,101351.91
2019-06-08T07:34:03.433Z,101363.34
2019-06-08T07:36:33.080Z,101370.36
2019-06-08T07:39:02.409Z,101371.24
2019-06-08T07:41:33.330Z,101365.08
2019-06-08T07:44:02.687Z,101372.54
2019-06-08T07:46:32.021Z,101376.52
2019-06-08T07:49:01.363Z,101399.37
2019-06-08T07:51:30.720Z,101384.43
2019-06-08T07:54:00.063Z,101384.84
2019-06-08T07:56:29.743Z,101383.06
2019-06-08T07:58:59.157Z,101391.41
2019-06-08T08:01:36.353Z,101383.06
2019-06-08T08:04:00.278Z,101398.88
2019-06-08T08:06:30.680Z,101392.70
2019-06-08T08:09:00.073Z,101394.45
2019-06-08T08:11:29.419Z,101416.44
2019-06-08T08:13:59.176Z,101406.31
2019-06-08T08:16:28.796Z,101425.23
2019-06-08T08:18:59.589Z,101412.47
2019-06-08T08:21:29.625Z,101412.02
2019-06-08T08:24:01.112Z,101403.20
2019-06-08T08:26:34.255Z,101390.02
2019-06-08T08:29:03.206Z,101416.83
2019-06-08T08:31:32.895Z,101418.59
2019-06-08T08:34:05.492Z,101420.36
2019-06-08T08:36:33.550Z,101433.13
2019-06-08T08:39:03.052Z,101429.63
2019-06-08T08:41:32.444Z,101426.53
2019-06-08T08:44:04.740Z,101441.95
2019-06-08T08:46:33.797Z,101432.70
2019-06-08T08:49:09.536Z,101437.52
2019-06-08T08:51:34.162Z,101430.92
2019-06-08T08:54:05.452Z,101447.23
2019-06-08T08:56:34.522Z,101452.50
2019-06-08T08:59:04.091Z,101457.77
2019-06-08T09:01:33.785Z,101445.00
2019-06-08T09:04:05.101Z,101452.02
2019-06-08T09:06:34.180Z,101444.12
2019-06-08T09:09:05.367Z,101451.99
2019-06-08T09:11:34.689Z,101448.41
2019-06-08T09:14:09.598Z,101444.86
2019-06-08T09:16:38.230Z,101458.88
2019-06-08T09:19:08.507Z,101457.06
2019-06-08T09:21:38.516Z,101470.22
2019-06-08T09:24:08.108Z,101479.47
2019-06-08T09:26:38.190Z,101478.59
2019-06-08T09:29:11.048Z,101480.41
2019-06-08T09:31:39.304Z,101486.57
2019-06-08T09:34:14.768Z,101494.05
2019-06-08T09:36:40.731Z,101502.00
2019-06-08T09:39:12.958Z,101529.77
2019-06-08T09:41:41.713Z,101509.94
2019-06-08T09:44:11.693Z,101539.44
2019-06-08T09:46:41.689Z,101495.38
2019-06-08T09:49:12.112Z,101517.41
2019-06-08T09:51:41.521Z,101517.85
2019-06-08T09:54:12.659Z,101560.62
2019-06-08T09:56:41.936Z,101532.00
2019-06-08T09:59:14.639Z,101544.31
2019-06-08T10:01:42.556Z,101551.38
2019-06-08T10:04:12.131Z,101541.23
2019-06-08T10:06:41.466Z,101551.81
2019-06-08T10:09:10.897Z,101587.95
2019-06-08T10:11:40.227Z,101554.03
2019-06-08T10:14:12.443Z,101585.73
2019-06-08T10:16:40.673Z,101564.59
2019-06-08T10:19:10.427Z,101569.42
2019-06-08T10:21:43.018Z,101574.30
2019-06-08T10:24:10.869Z,101581.34
2019-06-08T10:26:40.504Z,101576.50
2019-06-08T10:29:10.702Z,101570.75
2019-06-08T10:31:43.650Z,101578.20
2019-06-08T10:34:11.677Z,101590.05
2019-06-08T10:36:41.497Z,101575.50
2019-06-08T10:39:11.853Z,101580.73
2019-06-08T10:41:41.541Z,101594.83
2019-06-08T10:44:13.965Z,101583.81
2019-06-08T10:46:42.217Z,101592.61
2019-06-08T10:49:14.130Z,101598.80
2019-06-08T10:51:42.614Z,101601.87
2019-06-08T10:54:11.929Z,101603.19
2019-06-08T10:56:41.283Z,101608.02
2019-06-08T10:59:12.363Z,101601.84
2019-06-08T11:01:42.824Z,101600.97
2019-06-08T11:04:12.173Z,101611.95
2019-06-08T11:06:41.746Z,101606.61
2019-06-08T11:09:14.412Z,101597.27
2019-06-08T11:11:42.310Z,101607.80
2019-06-08T11:14:12.984Z,101605.51
2019-06-08T11:16:42.702Z,101598.88
2019-06-08T11:19:13.697Z,101602.38
2019-06-08T11:21:43.069Z,101625.34
2019-06-08T11:24:22.492Z,101617.91
2019-06-08T11:26:43.470Z,101624.09
2019-06-08T11:29:13.958Z,101626.34
2019-06-08T11:31:43.402Z,101626.77
2019-06-08T11:34:12.754Z,101625.86
2019-06-08T11:36:42.327Z,101628.93
2019-06-08T11:39:12.769Z,101660.75
2019-06-08T11:41:42.286Z,101650.59
2019-06-08T11:44:13.826Z,101656.34
2019-06-08T11:46:43.067Z,101661.17
2019-06-08T11:49:14.867Z,101657.63
2019-06-08T11:51:43.581Z,101666.42
2019-06-08T11:54:27.161Z,101658.45
2019-06-08T11:56:44.954Z,101661.92
2019-06-08T11:59:15.517Z,101653.97
2019-06-08T12:01:50.237Z,101657.44
2019-06-08T12:04:18.380Z,101668.04
2019-06-08T12:06:48.405Z,101672.00
2019-06-08T12:09:18.914Z,101680.79
2019-06-08T12:11:48.350Z,101686.06
2019-06-08T12:14:17.879Z,101675.45
2019-06-08T12:16:48.693Z,101674.98
2019-06-08T12:19:20.811Z,101691.31
2019-06-08T12:21:49.844Z,101681.14
2019-06-08T12:24:19.257Z,101700.52
2019-06-08T12:26:52.678Z,101678.42
2019-06-08T12:29:19.639Z,101682.80
2019-06-08T12:31:48.971Z,101673.48
2019-06-08T12:34:18.696Z,101688.95
2019-06-08T12:36:48.238Z,101696.00
2019-06-08T12:39:20.925Z,101694.22
2019-06-08T12:41:48.581Z,101701.61
2019-06-08T12:44:20.381Z,101697.06
2019-06-08T12:46:48.994Z,101701.84
2019-06-08T12:49:18.925Z,101692.45
2019-06-08T12:51:51.680Z,101684.73
2019-06-08T12:54:20.778Z,101684.56
2019-06-08T12:56:50.189Z,101693.31
2019-06-08T12:59:22.550Z,101689.20
2019-06-08T13:01:50.592Z,101703.16
2019-06-08T13:04:23.497Z,101708.72
2019-06-08T13:06:51.214Z,101694.67
2019-06-08T13:09:20.675Z,101696.03
2019-06-08T13:11:50.739Z,101697.78
2019-06-08T13:14:20.843Z,101705.05
2019-06-08T13:16:52.998Z,101704.56
2019-06-08T13:19:21.175Z,101670.31
2019-06-08T13:21:50.528Z,101684.25
2019-06-08T13:24:19.855Z,101706.44
2019-06-08T13:26:50.769Z,101693.33
2019-06-08T13:29:22.050Z,101698.33
2019-06-08T13:31:51.306Z,101683.75
2019-06-08T13:34:24.083Z,101685.86
2019-06-08T13:36:53.130Z,101689.18
2019-06-08T13:39:23.117Z,101699.78
2019-06-08T13:41:52.610Z,101681.85
2019-06-08T13:44:22.037Z,101683.55
2019-06-08T13:46:51.314Z,101688.66
2019-06-08T13:49:25.527Z,101699.47
2019-06-08T13:51:51.701Z,101691.30
2019-06-08T13:54:22.585Z,101696.33
2019-06-08T13:56:52.375Z,101688.83
2019-06-08T13:59:24.930Z,101694.80
2019-06-08T14:01:52.731Z,101693.27
2019-06-08T14:04:23.654Z,101704.50
2019-06-08T14:06:53.248Z,101693.66
2019-06-08T14:09:23.294Z,101718.09
2019-06-08T14:11:52.655Z,101705.91
2019-06-08T14:14:23.063Z,101705.50
2019-06-08T14:16:53.328Z,101716.30
2019-06-08T14:19:24.873Z,101701.69
2019-06-08T14:21:55.235Z,101715.47
2019-06-08T14:24:29.747Z,101733.41
2019-06-08T14:26:58.271Z,101716.20
2019-06-08T14:29:28.855Z,101741.83
2019-06-08T14:31:58.100Z,101730.34
2019-06-08T14:34:29.446Z,101721.08
2019-06-08T14:36:59.366Z,101721.59
2019-06-08T14:39:31.546Z,101712.89
2019-06-08T14:42:00.431Z,101717.95
2019-06-08T14:44:33.755Z,101738.73
2019-06-08T14:47:04.045Z,101720.66
2019-06-08T14:49:35.189Z,101738.63
2019-06-08T14:52:04.587Z,101767.88
2019-06-08T14:54:35.249Z,101788.23
2019-06-08T14:57:04.833Z,101789.95
2019-06-08T14:59:34.111Z,101800.41
2019-06-08T15:02:03.843Z,101797.05
2019-06-08T15:04:36.026Z,101810.57
2019-06-08T15:07:04.535Z,101827.92
2019-06-08T15:09:34.327Z,101814.66
2019-06-08T15:12:03.741Z,101818.68
2019-06-08T15:14:35.128Z,101821.61
2019-06-08T15:17:04.192Z,101816.48
2019-06-08T15:19:33.528Z,101814.19
2019-06-08T15:22:04.328Z,101815.68
2019-06-08T15:24:33.649Z,101837.46
2019-06-08T15:27:04.301Z,101856.75
2019-06-08T15:29:33.723Z,101864.45
2019-06-08T15:32:03.079Z,101897.39
2019-06-08T15:34:33.198Z,101888.61
2019-06-08T15:37:02.617Z,101913.03
2019-06-08T15:39:33.982Z,101905.07
2019-06-08T15:42:03.191Z,101881.27
2019-06-08T15:44:33.899Z,101862.41
2019-06-08T15:47:03.598Z,101848.69
2019-06-08T15:49:33.935Z,101865.55
2019-06-08T15:52:03.295Z,101873.98
2019-06-08T15:54:36.186Z,101883.33
2019-06-08T15:57:03.725Z,101875.00
2019-06-08T15:59:38.990Z,101873.30
2019-06-08T16:02:04.516Z,101877.71
2019-06-08T16:04:33.983Z,101885.22
2019-06-08T16:07:03.707Z,101911.25
2019-06-08T16:09:34.239Z,101911.27
2019-06-08T16:12:04.139Z,101931.98
2019-06-08T16:14:33.468Z,101939.95
2019-06-08T16:17:02.820Z,101931.57
2019-06-08T16:19:33.609Z,101935.52
2019-06-08T16:22:03.178Z,101928.45
2019-06-08T16:24:33.995Z,101902.43
2019-06-08T16:27:03.361Z,101890.50
2019-06-08T16:29:33.321Z,101896.17
2019-06-08T16:32:02.756Z,101893.53
2019-06-08T16:34:33.508Z,101894.86
2019-06-08T16:37:02.920Z,101888.26
2019-06-08T16:39:32.844Z,101890.47
2019-06-08T16:42:02.304Z,101881.68
2019-06-08T16:44:32.264Z,101877.27
2019-06-08T16:47:01.901Z,101887.01
2019-06-08T16:49:31.310Z,101883.05
2019-06-08T16:52:00.657Z,101873.81
2019-06-08T16:54:30.584Z,101882.19
2019-06-08T16:57:09.447Z,101874.28
2019-06-08T16:59:32.247Z,101882.62
2019-06-08T17:02:02.911Z,101878.67
2019-06-08T17:04:33.210Z,101898.52
2019-06-08T17:07:02.586Z,101898.06
2019-06-08T17:09:32.543Z,101912.61
2019-06-08T17:12:06.184Z,101909.95
2019-06-08T17:14:36.355Z,101939.94
2019-06-08T17:17:05.823Z,101939.05
2019-06-08T17:19:36.255Z,101950.48
2019-06-08T17:22:05.669Z,101952.23
2019-06-08T17:24:35.023Z,101942.95
2019-06-08T17:27:05.353Z,101930.97
2019-06-08T17:29:34.946Z,101933.98
2019-06-08T17:32:04.355Z,101933.89
2019-06-08T17:34:34.883Z,101923.36
2019-06-08T17:37:04.719Z,101926.77
2019-06-08T17:39:34.069Z,101924.13
2019-06-08T17:42:03.431Z,101921.94
2019-06-08T17:44:34.766Z,101921.93
2019-06-08T17:47:04.485Z,101922.41
2019-06-08T17:49:34.548Z,101927.23
2019-06-08T17:52:03.954Z,101933.00
2019-06-08T17:54:33.593Z,101926.83
2019-06-08T17:57:03.923Z,101926.41
2019-06-08T17:59:33.252Z,101916.75
2019-06-08T18:02:02.585Z,101915.89
2019-06-08T18:04:33.467Z,101918.10
2019-06-08T18:07:03.061Z,101921.65
2019-06-08T18:09:33.752Z,101927.39
2019-06-08T18:12:04.727Z,101925.67
2019-06-08T18:14:34.143Z,101935.34
2019-06-08T18:17:03.466Z,101932.72
2019-06-08T18:19:34.160Z,101928.77
2019-06-08T18:22:05.919Z,101929.69
2019-06-08T18:24:37.908Z,101934.08
2019-06-08T18:27:07.785Z,101932.76
2019-06-08T18:29:39.212Z,101935.41
2019-06-08T18:32:10.131Z,101941.63
2019-06-08T18:34:40.668Z,101941.16
2019-06-08T18:37:10.753Z,101946.04
2019-06-08T18:39:42.726Z,101951.31
2019-06-08T18:42:11.377Z,101948.70
2019-06-08T18:44:42.971Z,101946.02
2019-06-08T18:47:13.785Z,101957.91
2019-06-08T18:49:45.562Z,101949.98
2019-06-08T18:52:17.613Z,101953.08
2019-06-08T18:54:49.243Z,101959.70
2019-06-08T18:57:17.746Z,101954.44
2019-06-08T18:59:52.588Z,101950.45
2019-06-08T19:02:18.838Z,101948.70
2019-06-08T19:04:49.440Z,101949.14
2019-06-08T19:07:19.050Z,101955.34
2019-06-08T19:09:49.790Z,101951.36
2019-06-08T19:12:19.599Z,101961.08
2019-06-08T19:14:52.386Z,101954.91
2019-06-08T19:17:21.967Z,101960.18
2019-06-08T19:19:52.709Z,101968.13
2019-06-08T19:22:22.102Z,101963.73
2019-06-08T19:24:51.436Z,101970.78
2019-06-08T19:27:21.028Z,101969.88
2019-06-08T19:29:51.867Z,101976.04
2019-06-08T19:32:21.240Z,101978.67
2019-06-08T19:34:54.405Z,101978.66
2019-06-08T19:37:21.872Z,101982.63
2019-06-08T19:39:51.174Z,101983.48
2019-06-08T19:42:33.279Z,101987.00
2019-06-08T19:45:01.155Z,101995.38
2019-06-08T19:47:22.787Z,101994.48
2019-06-08T19:49:54.729Z,102008.08
2019-06-08T19:52:23.416Z,102010.28
2019-06-08T19:54:54.076Z,102012.91
2019-06-08T19:57:23.527Z,102020.83
2019-06-08T19:59:52.870Z,102021.25
2019-06-08T20:02:22.276Z,102026.95
2019-06-08T20:04:53.128Z,102038.39
2019-06-08T20:07:23.822Z,102034.83
2019-06-08T20:09:53.929Z,102040.14
2019-06-08T20:12:23.414Z,102048.48
2019-06-08T20:14:53.798Z,102050.23
2019-06-08T20:17:23.168Z,102053.72
2019-06-08T20:19:53.588Z,102062.95
2019-06-08T20:22:22.968Z,102066.91
2019-06-08T20:24:55.772Z,102062.03
2019-06-08T20:27:24.099Z,102068.17
2019-06-08T20:29:53.956Z,102079.12
2019-06-08T20:32:23.312Z,102073.41
2019-06-08T20:34:53.772Z,102073.41
2019-06-08T20:37:23.318Z,102069.91
2019-06-08T20:40:03.012Z,102075.16
2019-06-08T20:42:24.053Z,102082.20
2019-06-08T20:44:53.386Z,102083.44
2019-06-08T20:47:22.711Z,102094.41
2019-06-08T20:49:53.480Z,102088.66
2019-06-08T20:52:24.029Z,102090.41
2019-06-08T20:54:53.606Z,102098.33
2019-06-08T20:57:22.977Z,102102.22
2019-06-08T20:59:53.525Z,102098.67
2019-06-08T21:02:23.339Z,102102.08
2019-06-08T21:04:54.582Z,102101.16
2019-06-08T21:07:23.735Z,102100.28
2019-06-08T21:09:54.189Z,102105.48
2019-06-08T21:12:24.363Z,102109.44
2019-06-08T21:14:54.260Z,102114.67
2019-06-08T21:17:24.700Z,102110.61
2019-06-08T21:19:55.603Z,102120.72
2019-06-08T21:22:27.569Z,102114.92
2019-06-08T21:24:59.726Z,102115.75
2019-06-08T21:27:27.722Z,102116.59
2019-06-08T21:30:06.055Z,102117.02
2019-06-08T21:32:28.051Z,102109.03
2019-06-08T21:34:59.985Z,102109.42
2019-06-08T21:37:28.435Z,102111.13
2019-06-08T21:40:03.436Z,102117.24
2019-06-08T21:42:29.034Z,102119.83
2019-06-08T21:45:01.127Z,102119.72
2019-06-08T21:47:29.741Z,102117.91
2019-06-08T21:50:00.443Z,102122.27
2019-06-08T21:52:30.017Z,102118.27
2019-06-08T21:55:00.591Z,102122.22
2019-06-08T21:57:30.213Z,102120.85
2019-06-08T22:00:19.340Z,102123.03
2019-06-08T22:02:32.962Z,102113.28
2019-06-08T22:05:04.661Z,102120.69
2019-06-08T22:07:34.389Z,102117.61
2019-06-08T22:10:07.745Z,102117.61
2019-06-08T22:12:40.170Z,102119.75
2019-06-08T22:15:08.541Z,102121.52
2019-06-08T22:17:38.396Z,102115.80
2019-06-08T22:20:08.963Z,102120.09
2019-06-08T22:22:38.289Z,102125.34
2019-06-08T22:25:08.384Z,102124.41
2019-06-08T22:27:38.306Z,102128.73
2019-06-08T22:30:13.425Z,102121.29
2019-06-08T22:32:39.202Z,102123.02
2019-06-08T22:35:08.901Z,102125.67
2019-06-08T22:37:38.493Z,102124.73
2019-06-08T22:40:08.419Z,102134.38
2019-06-08T22:42:37.795Z,102123.80
2019-06-08T22:45:08.298Z,102133.84
2019-06-08T22:47:38.668Z,102134.26
2019-06-08T22:50:09.549Z,102135.91
2019-06-08T22:52:38.893Z,102131.52
2019-06-08T22:55:10.805Z,102126.67
2019-06-08T22:57:40.159Z,102130.05
2019-06-08T23:00:16.749Z,102131.81
2019-06-08T23:02:41.847Z,102133.56
2019-06-08T23:05:11.270Z,102137.94
2019-06-08T23:07:40.861Z,102134.36
2019-06-08T23:10:10.734Z,102137.86
2019-06-08T23:12:40.302Z,102138.24
2019-06-08T23:15:09.727Z,102141.32
2019-06-08T23:17:39.145Z,102140.37
2019-06-08T23:20:09.006Z,102145.63
2019-06-08T23:22:38.717Z,102138.13
2019-06-08T23:25:09.387Z,102145.96
2019-06-08T23:27:40.063Z,102144.56
2019-06-08T23:30:10.541Z,102141.48
2019-06-08T23:32:40.340Z,102143.69
2019-06-08T23:35:09.900Z,102151.95
2019-06-08T23:37:39.666Z,102149.69
2019-06-08T23:40:09.633Z,102157.52
2019-06-08T23:42:39.285Z,102148.73
2019-06-08T23:45:10.772Z,102153.05
2019-06-08T23:47:40.177Z,102148.61
2019-06-08T23:50:11.727Z,102150.80
2019-06-08T23:52:42.419Z,102149.55
2019-06-08T23:55:12.152Z,102154.69
2019-06-08T23:57:41.838Z,102154.14
